UAL360 KLAX-KDEN
Flight info
| Callsign | UAL360 |
|---|---|
| Flight time | N/A |
| Altitude | 35000 |
| Route | ORCKA5 LAS J146 DICEE BUMMP SSKII4 |
| Aircraft | A21N/M-SDE3FGHIRWY/LB1 |
Departure
| Time | 2026-04-25 22:16 |
|---|---|
| Airport | Los Angeles International Airport (KLAX) |
Arrival
| Time | N/A |
|---|---|
| Airport | Denver International Airport (KDEN) |
| Time | Latitude | Longitude | Altitude | Speed | Heading |
|---|---|---|---|---|---|
| 2026-04-25 22:00 | 33.94168 | -118.39780 | 113 ft | 0 kts | 84° |
| 2026-04-25 22:07 | 33.94165 | -118.39822 | 114 ft | 3 kts | 83° |
| 2026-04-25 22:07 | 33.94164 | -118.39846 | 115 ft | 1 kts | 82° |
| 2026-04-25 22:08 | 33.94175 | -118.39852 | 115 ft | 0 kts | 121° |
| 2026-04-25 22:08 | 33.94174 | -118.39851 | 114 ft | 0 kts | 121° |
| 2026-04-25 22:11 | 33.94166 | -118.39842 | 114 ft | 4 kts | 148° |
| 2026-04-25 22:11 | 33.94117 | -118.39835 | 114 ft | 9 kts | 175° |
| 2026-04-25 22:11 | 33.94039 | -118.39831 | 114 ft | 12 kts | 176° |
| 2026-04-25 22:12 | 33.93961 | -118.39818 | 113 ft | 10 kts | 166° |
| 2026-04-25 22:12 | 33.93911 | -118.39756 | 112 ft | 12 kts | 102° |
| 2026-04-25 22:12 | 33.93917 | -118.39635 | 111 ft | 15 kts | 83° |
| 2026-04-25 22:12 | 33.93925 | -118.39549 | 111 ft | 15 kts | 84° |
| 2026-04-25 22:13 | 33.93944 | -118.39368 | 108 ft | 17 kts | 83° |
| 2026-04-25 22:13 | 33.93958 | -118.39223 | 107 ft | 17 kts | 84° |
| 2026-04-25 22:13 | 33.93973 | -118.39075 | 106 ft | 18 kts | 83° |
| 2026-04-25 22:13 | 33.93990 | -118.38920 | 104 ft | 18 kts | 83° |
| 2026-04-25 22:14 | 33.94005 | -118.38766 | 104 ft | 18 kts | 83° |
| 2026-04-25 22:14 | 33.94021 | -118.38612 | 104 ft | 18 kts | 83° |
| 2026-04-25 22:14 | 33.94037 | -118.38456 | 103 ft | 19 kts | 83° |
| 2026-04-25 22:14 | 33.94054 | -118.38292 | 101 ft | 19 kts | 83° |
| 2026-04-25 22:15 | 33.94069 | -118.38141 | 101 ft | 16 kts | 83° |
| 2026-04-25 22:15 | 33.94072 | -118.38032 | 101 ft | 9 kts | 117° |
| 2026-04-25 22:15 | 33.94010 | -118.38007 | 101 ft | 10 kts | 200° |
| 2026-04-25 22:16 | 33.93933 | -118.38515 | 104 ft | 92 kts | 263° |
| 2026-04-25 22:16 | 33.93825 | -118.39583 | 116 ft | 159 kts | 262° |
| 2026-04-25 22:16 | 33.93689 | -118.41059 | 380 ft | 192 kts | 262° |
| 2026-04-25 22:16 | 33.93530 | -118.42750 | 996 ft | 213 kts | 259° |
| 2026-04-25 22:17 | 33.93217 | -118.44555 | 1532 ft | 228 kts | 255° |
| 2026-04-25 22:17 | 33.92781 | -118.46470 | 1995 ft | 245 kts | 251° |
| 2026-04-25 22:17 | 33.92179 | -118.48458 | 2645 ft | 254 kts | 249° |
| 2026-04-25 22:17 | 33.91517 | -118.50453 | 3466 ft | 256 kts | 248° |
| 2026-04-25 22:18 | 33.90843 | -118.52421 | 4256 ft | 258 kts | 248° |
| 2026-04-25 22:18 | 33.90153 | -118.54422 | 5006 ft | 262 kts | 248° |
| 2026-04-25 22:18 | 33.89452 | -118.56445 | 5630 ft | 265 kts | 248° |
| 2026-04-25 22:18 | 33.88562 | -118.58388 | 6327 ft | 269 kts | 228° |
| 2026-04-25 22:19 | 33.87043 | -118.59676 | 7087 ft | 272 kts | 204° |
| 2026-04-25 22:19 | 33.85182 | -118.60035 | 7858 ft | 277 kts | 177° |
| 2026-04-25 22:19 | 33.83356 | -118.59304 | 8589 ft | 284 kts | 150° |
| 2026-04-25 22:19 | 33.81985 | -118.57556 | 9273 ft | 295 kts | 121° |
| 2026-04-25 22:20 | 33.81473 | -118.55173 | 9892 ft | 306 kts | 91° |
| 2026-04-25 22:20 | 33.82021 | -118.52676 | 10407 ft | 318 kts | 61° |
| 2026-04-25 22:20 | 33.83538 | -118.50693 | 10703 ft | 331 kts | 34° |
| 2026-04-25 22:20 | 33.85525 | -118.49205 | 11005 ft | 345 kts | 28° |
| 2026-04-25 22:21 | 33.87640 | -118.47773 | 11470 ft | 353 kts | 28° |
| 2026-04-25 22:21 | 33.89774 | -118.46264 | 12028 ft | 358 kts | 30° |
| 2026-04-25 22:21 | 33.91876 | -118.44621 | 12571 ft | 364 kts | 36° |
| 2026-04-25 22:21 | 33.93735 | -118.42516 | 13101 ft | 370 kts | 50° |
| 2026-04-25 22:22 | 33.95295 | -118.39997 | 13620 ft | 374 kts | 56° |
| 2026-04-25 22:22 | 33.96754 | -118.37349 | 14140 ft | 379 kts | 58° |
| 2026-04-25 22:22 | 33.98190 | -118.34714 | 14667 ft | 383 kts | 57° |
| 2026-04-25 22:22 | 33.99677 | -118.32030 | 15183 ft | 387 kts | 57° |
| 2026-04-25 22:23 | 34.01197 | -118.29324 | 15677 ft | 391 kts | 57° |
| 2026-04-25 22:23 | 34.02733 | -118.26612 | 16171 ft | 395 kts | 57° |
| 2026-04-25 22:23 | 34.04290 | -118.23872 | 16664 ft | 398 kts | 57° |
| 2026-04-25 22:23 | 34.05865 | -118.21098 | 17136 ft | 402 kts | 57° |
| 2026-04-25 22:24 | 34.07449 | -118.18302 | 17581 ft | 406 kts | 57° |
| 2026-04-25 22:24 | 34.09061 | -118.15449 | 18063 ft | 409 kts | 57° |
| 2026-04-25 22:24 | 34.10672 | -118.12598 | 18530 ft | 412 kts | 57° |
| 2026-04-25 22:24 | 34.12308 | -118.09696 | 18956 ft | 416 kts | 57° |
| 2026-04-25 22:25 | 34.13943 | -118.06800 | 19379 ft | 419 kts | 57° |
| 2026-04-25 22:25 | 34.15583 | -118.03893 | 19808 ft | 421 kts | 57° |
| 2026-04-25 22:25 | 34.17248 | -118.00934 | 20237 ft | 424 kts | 57° |
| 2026-04-25 22:25 | 34.18897 | -117.98002 | 20644 ft | 427 kts | 57° |
| 2026-04-25 22:26 | 34.20581 | -117.95007 | 21043 ft | 430 kts | 57° |
| 2026-04-25 22:26 | 34.22257 | -117.92022 | 21451 ft | 432 kts | 57° |
| 2026-04-25 22:26 | 34.23959 | -117.88995 | 21862 ft | 435 kts | 57° |
| 2026-04-25 22:26 | 34.25647 | -117.85983 | 22235 ft | 437 kts | 57° |
| 2026-04-25 22:27 | 34.27365 | -117.82917 | 22619 ft | 440 kts | 57° |
| 2026-04-25 22:27 | 34.29071 | -117.79871 | 22982 ft | 442 kts | 57° |
| 2026-04-25 22:27 | 34.30793 | -117.76789 | 23363 ft | 445 kts | 57° |
| 2026-04-25 22:27 | 34.32542 | -117.73662 | 23743 ft | 447 kts | 57° |
| 2026-04-25 22:28 | 34.34276 | -117.70556 | 24080 ft | 450 kts | 57° |
| 2026-04-25 22:28 | 34.36069 | -117.67397 | 24415 ft | 453 kts | 55° |
| 2026-04-25 22:28 | 34.37898 | -117.64325 | 24769 ft | 455 kts | 54° |
| 2026-04-25 22:28 | 34.39774 | -117.61212 | 25128 ft | 457 kts | 54° |
| 2026-04-25 22:29 | 34.41651 | -117.58100 | 25564 ft | 457 kts | 54° |
| 2026-04-25 22:29 | 34.43533 | -117.54965 | 25982 ft | 457 kts | 54° |
| 2026-04-25 22:29 | 34.45402 | -117.51842 | 26327 ft | 459 kts | 54° |
| 2026-04-25 22:30 | 34.49150 | -117.45547 | 26927 ft | 464 kts | 54° |
| 2026-04-25 22:30 | 34.51035 | -117.42372 | 27224 ft | 467 kts | 54° |
| 2026-04-25 22:30 | 34.52945 | -117.39159 | 27549 ft | 468 kts | 54° |
| 2026-04-25 22:30 | 34.54206 | -117.37034 | 27752 ft | 470 kts | 54° |
| 2026-04-25 22:31 | 34.56781 | -117.32692 | 28164 ft | 472 kts | 55° |
| 2026-04-25 22:31 | 34.58715 | -117.29425 | 28453 ft | 474 kts | 55° |
| 2026-04-25 22:31 | 34.60660 | -117.26136 | 28713 ft | 477 kts | 55° |
| 2026-04-25 22:31 | 34.62603 | -117.22849 | 28982 ft | 479 kts | 55° |
| 2026-04-25 22:32 | 34.64553 | -117.19548 | 29264 ft | 481 kts | 55° |
| 2026-04-25 22:32 | 34.66511 | -117.16225 | 29557 ft | 482 kts | 54° |
| 2026-04-25 22:32 | 34.68472 | -117.12903 | 29821 ft | 484 kts | 55° |
| 2026-04-25 22:32 | 34.70416 | -117.09600 | 30088 ft | 486 kts | 55° |
| 2026-04-25 22:33 | 34.72401 | -117.06229 | 30320 ft | 488 kts | 55° |
| 2026-04-25 22:33 | 34.74371 | -117.02876 | 30555 ft | 490 kts | 55° |
| 2026-04-25 22:33 | 34.76347 | -116.99508 | 30812 ft | 492 kts | 55° |
| 2026-04-25 22:33 | 34.78341 | -116.96109 | 31050 ft | 494 kts | 54° |
| 2026-04-25 22:34 | 34.80352 | -116.92676 | 31238 ft | 497 kts | 54° |
| 2026-04-25 22:34 | 34.82354 | -116.89256 | 31457 ft | 499 kts | 54° |
| 2026-04-25 22:34 | 34.84371 | -116.85811 | 31673 ft | 501 kts | 55° |
| 2026-04-25 22:34 | 34.86385 | -116.82364 | 31891 ft | 503 kts | 54° |
| 2026-04-25 22:35 | 34.88399 | -116.78909 | 32107 ft | 505 kts | 54° |
| 2026-04-25 22:35 | 34.90453 | -116.75403 | 32315 ft | 507 kts | 53° |
| 2026-04-25 22:35 | 34.92598 | -116.72047 | 32521 ft | 508 kts | 50° |
| 2026-04-25 22:35 | 34.94942 | -116.68792 | 32731 ft | 510 kts | 47° |
| 2026-04-25 22:36 | 34.97355 | -116.65605 | 32956 ft | 511 kts | 45° |
| 2026-04-25 22:36 | 34.99759 | -116.62470 | 33216 ft | 511 kts | 45° |
| 2026-04-25 22:36 | 35.02211 | -116.59276 | 33461 ft | 512 kts | 45° |
| 2026-04-25 22:36 | 35.04615 | -116.56127 | 33659 ft | 513 kts | 45° |
| 2026-04-25 22:37 | 35.07059 | -116.52913 | 33848 ft | 515 kts | 46° |
| 2026-04-25 22:37 | 35.09490 | -116.49706 | 34040 ft | 516 kts | 46° |
| 2026-04-25 22:37 | 35.11927 | -116.46484 | 34230 ft | 517 kts | 46° |
| 2026-04-25 22:37 | 35.14371 | -116.43250 | 34410 ft | 518 kts | 46° |
| 2026-04-25 22:38 | 35.16785 | -116.40051 | 34591 ft | 518 kts | 46° |
| 2026-04-25 22:38 | 35.19231 | -116.36807 | 34733 ft | 520 kts | 46° |
| 2026-04-25 22:38 | 35.24137 | -116.30290 | 34807 ft | 521 kts | 46° |
| 2026-04-25 22:39 | 35.29081 | -116.23711 | 34816 ft | 528 kts | 46° |
| 2026-04-25 22:39 | 35.34078 | -116.17045 | 34820 ft | 535 kts | 46° |
| 2026-04-25 22:40 | 35.39125 | -116.10302 | 34822 ft | 538 kts | 46° |
| 2026-04-25 22:40 | 35.44174 | -116.03545 | 34823 ft | 538 kts | 46° |
| 2026-04-25 22:41 | 35.49233 | -115.96757 | 34843 ft | 537 kts | 46° |
| 2026-04-25 22:41 | 35.54246 | -115.90016 | 34848 ft | 536 kts | 46° |
| 2026-04-25 22:42 | 35.59261 | -115.83260 | 34848 ft | 536 kts | 46° |
| 2026-04-25 22:42 | 35.64263 | -115.76503 | 34844 ft | 535 kts | 46° |
| 2026-04-25 22:43 | 35.69235 | -115.69679 | 34850 ft | 535 kts | 47° |
| 2026-04-25 22:43 | 35.74172 | -115.62874 | 34854 ft | 535 kts | 47° |
| 2026-04-25 22:44 | 35.79094 | -115.56078 | 34856 ft | 534 kts | 47° |
| 2026-04-25 22:44 | 35.84026 | -115.49262 | 34870 ft | 533 kts | 46° |
| 2026-04-25 22:45 | 35.88961 | -115.42429 | 34859 ft | 532 kts | 46° |
| 2026-04-25 22:45 | 35.93872 | -115.35619 | 34862 ft | 532 kts | 46° |
| 2026-04-25 22:46 | 35.98768 | -115.28809 | 34836 ft | 530 kts | 47° |
| 2026-04-25 22:46 | 36.03563 | -115.21890 | 34818 ft | 531 kts | 51° |
| 2026-04-25 22:47 | 36.07724 | -115.14324 | 34804 ft | 531 kts | 59° |
| 2026-04-25 22:47 | 36.11015 | -115.06216 | 34792 ft | 530 kts | 68° |
| 2026-04-25 22:48 | 36.13660 | -114.97694 | 34787 ft | 529 kts | 71° |
| 2026-04-25 22:48 | 36.16229 | -114.89158 | 34786 ft | 529 kts | 70° |
| 2026-04-25 22:49 | 36.18837 | -114.80652 | 34788 ft | 530 kts | 70° |
| 2026-04-25 22:49 | 36.21446 | -114.72146 | 34791 ft | 530 kts | 70° |
| 2026-04-25 22:50 | 36.24043 | -114.63655 | 34801 ft | 530 kts | 70° |
| 2026-04-25 22:50 | 36.26640 | -114.55128 | 34807 ft | 530 kts | 70° |
| 2026-04-25 22:51 | 36.29235 | -114.46575 | 34809 ft | 531 kts | 70° |
| 2026-04-25 22:51 | 36.31820 | -114.38044 | 34818 ft | 531 kts | 70° |
| 2026-04-25 22:52 | 36.34397 | -114.29513 | 34821 ft | 530 kts | 70° |
| 2026-04-25 22:52 | 36.36540 | -114.22387 | 34824 ft | 530 kts | 70° |
| 2026-04-25 22:53 | 36.39540 | -114.12387 | 34826 ft | 530 kts | 70° |
| 2026-04-25 22:53 | 36.42096 | -114.03846 | 34827 ft | 531 kts | 70° |
| 2026-04-25 22:54 | 36.44658 | -113.95257 | 34841 ft | 531 kts | 70° |
| 2026-04-25 22:54 | 36.47215 | -113.86649 | 34853 ft | 531 kts | 70° |
| 2026-04-25 22:55 | 36.49753 | -113.78092 | 34874 ft | 531 kts | 70° |
| 2026-04-25 22:55 | 36.52307 | -113.69456 | 34887 ft | 531 kts | 70° |
| 2026-04-25 22:56 | 36.54856 | -113.60801 | 34905 ft | 532 kts | 70° |
| 2026-04-25 22:56 | 36.57383 | -113.52187 | 34910 ft | 531 kts | 70° |
| 2026-04-25 22:57 | 36.59908 | -113.43565 | 34921 ft | 532 kts | 70° |
| 2026-04-25 22:57 | 36.62410 | -113.34995 | 34920 ft | 532 kts | 70° |
| 2026-04-25 22:58 | 36.64927 | -113.26341 | 34928 ft | 531 kts | 71° |
| 2026-04-25 22:58 | 36.67426 | -113.17710 | 34936 ft | 531 kts | 71° |
| 2026-04-25 22:59 | 36.69930 | -113.09030 | 34941 ft | 531 kts | 71° |
| 2026-04-25 22:59 | 36.72409 | -113.00410 | 34946 ft | 532 kts | 70° |
| 2026-04-25 23:00 | 36.74903 | -112.91718 | 34946 ft | 531 kts | 71° |
| 2026-04-25 23:00 | 36.77375 | -112.83071 | 34943 ft | 531 kts | 71° |
| 2026-04-25 23:01 | 36.79841 | -112.74425 | 34942 ft | 531 kts | 70° |
| 2026-04-25 23:01 | 36.82301 | -112.65765 | 34946 ft | 531 kts | 71° |
| 2026-04-25 23:02 | 36.84771 | -112.57043 | 34940 ft | 530 kts | 71° |
| 2026-04-25 23:02 | 36.87209 | -112.48399 | 34947 ft | 531 kts | 70° |
| 2026-04-25 23:03 | 36.89656 | -112.39708 | 34948 ft | 531 kts | 71° |
| 2026-04-25 23:03 | 36.92079 | -112.31031 | 34953 ft | 531 kts | 71° |
| 2026-04-25 23:04 | 36.94105 | -112.23798 | 34952 ft | 531 kts | 71° |
| 2026-04-25 23:04 | 36.96942 | -112.13642 | 34950 ft | 530 kts | 71° |
| 2026-04-25 23:05 | 36.99357 | -112.04952 | 34944 ft | 531 kts | 71° |
| 2026-04-25 23:05 | 37.01756 | -111.96298 | 34947 ft | 531 kts | 71° |
| 2026-04-25 23:06 | 37.04176 | -111.87540 | 34943 ft | 531 kts | 71° |
| 2026-04-25 23:06 | 37.06575 | -111.78833 | 34943 ft | 531 kts | 71° |
| 2026-04-25 23:07 | 37.08966 | -111.70119 | 34943 ft | 532 kts | 71° |
| 2026-04-25 23:07 | 37.11364 | -111.61353 | 34937 ft | 532 kts | 71° |
| 2026-04-25 23:08 | 37.13759 | -111.52573 | 34934 ft | 533 kts | 71° |
| 2026-04-25 23:08 | 37.16135 | -111.43820 | 34927 ft | 533 kts | 71° |
| 2026-04-25 23:09 | 37.18522 | -111.35021 | 34924 ft | 533 kts | 71° |
| 2026-04-25 23:09 | 37.20902 | -111.26232 | 34920 ft | 533 kts | 71° |
| 2026-04-25 23:10 | 37.23749 | -111.17698 | 34912 ft | 533 kts | 64° |
| 2026-04-25 23:10 | 37.27059 | -111.09380 | 34918 ft | 534 kts | 62° |
| 2026-04-25 23:11 | 37.30383 | -111.01109 | 34921 ft | 534 kts | 62° |
| 2026-04-25 23:11 | 37.33708 | -110.92773 | 34921 ft | 534 kts | 63° |
| 2026-04-25 23:12 | 37.37005 | -110.84438 | 34918 ft | 535 kts | 63° |
| 2026-04-25 23:12 | 37.40309 | -110.76060 | 34916 ft | 535 kts | 63° |
| 2026-04-25 23:13 | 37.43611 | -110.67668 | 34917 ft | 535 kts | 63° |
| 2026-04-25 23:13 | 37.46904 | -110.59281 | 34919 ft | 536 kts | 63° |
| 2026-04-25 23:14 | 37.50172 | -110.50921 | 34878 ft | 535 kts | 63° |
| 2026-04-25 23:14 | 37.53451 | -110.42516 | 34925 ft | 536 kts | 62° |
| 2026-04-25 23:15 | 37.56746 | -110.34054 | 34968 ft | 535 kts | 63° |
| 2026-04-25 23:15 | 37.59991 | -110.25697 | 34950 ft | 535 kts | 64° |
| 2026-04-25 23:16 | 37.63270 | -110.17231 | 34945 ft | 536 kts | 63° |
| 2026-04-25 23:16 | 37.66511 | -110.08824 | 34950 ft | 536 kts | 63° |
| 2026-04-25 23:17 | 37.69776 | -110.00345 | 34963 ft | 536 kts | 63° |
| 2026-04-25 23:17 | 37.73028 | -109.91876 | 34966 ft | 536 kts | 63° |
| 2026-04-25 23:18 | 37.76254 | -109.83447 | 34965 ft | 537 kts | 63° |
| 2026-04-25 23:18 | 37.79503 | -109.74944 | 34966 ft | 536 kts | 63° |
| 2026-04-25 23:19 | 37.82733 | -109.66464 | 34838 ft | 537 kts | 63° |
| 2026-04-25 23:19 | 37.85950 | -109.57983 | 34937 ft | 538 kts | 63° |
| 2026-04-25 23:20 | 37.89179 | -109.49461 | 34963 ft | 537 kts | 63° |
| 2026-04-25 23:20 | 37.92409 | -109.40910 | 34975 ft | 538 kts | 63° |
| 2026-04-25 23:21 | 37.95612 | -109.32397 | 34972 ft | 538 kts | 64° |
| 2026-04-25 23:21 | 37.98825 | -109.23849 | 34977 ft | 538 kts | 64° |
| 2026-04-25 23:22 | 38.02025 | -109.15302 | 34983 ft | 538 kts | 63° |
| 2026-04-25 23:23 | 38.06817 | -109.02460 | 35002 ft | 538 kts | 63° |
| 2026-04-25 23:23 | 38.10012 | -108.93863 | 35000 ft | 538 kts | 63° |
| 2026-04-25 23:24 | 38.13312 | -108.85372 | 35006 ft | 538 kts | 62° |
| 2026-04-25 23:24 | 38.16669 | -108.76905 | 34998 ft | 537 kts | 61° |
| 2026-04-25 23:25 | 38.20003 | -108.68438 | 35007 ft | 538 kts | 62° |
| 2026-04-25 23:25 | 38.23332 | -108.59927 | 35025 ft | 538 kts | 61° |
| 2026-04-25 23:26 | 38.26640 | -108.51437 | 35039 ft | 538 kts | 62° |
| 2026-04-25 23:26 | 38.29957 | -108.42905 | 35052 ft | 537 kts | 62° |
| 2026-04-25 23:27 | 38.33259 | -108.34388 | 35072 ft | 537 kts | 62° |
| 2026-04-25 23:27 | 38.36559 | -108.25854 | 35075 ft | 538 kts | 62° |
| 2026-04-25 23:28 | 38.39843 | -108.17333 | 35091 ft | 538 kts | 62° |
| 2026-04-25 23:28 | 38.43115 | -108.08816 | 35086 ft | 537 kts | 62° |
| 2026-04-25 23:29 | 38.46399 | -108.00248 | 35066 ft | 538 kts | 62° |
| 2026-04-25 23:29 | 38.49638 | -107.91697 | 35002 ft | 538 kts | 62° |
| 2026-04-25 23:30 | 38.52889 | -107.83067 | 34998 ft | 537 kts | 62° |
| 2026-04-25 23:30 | 38.56104 | -107.74521 | 35048 ft | 538 kts | 63° |
| 2026-04-25 23:31 | 38.59341 | -107.65892 | 35094 ft | 538 kts | 62° |
| 2026-04-25 23:31 | 38.62554 | -107.57306 | 35126 ft | 537 kts | 62° |
| 2026-04-25 23:32 | 38.65767 | -107.48698 | 35150 ft | 537 kts | 62° |
| 2026-04-25 23:32 | 38.68994 | -107.40160 | 35154 ft | 536 kts | 62° |
| 2026-04-25 23:33 | 38.72259 | -107.31548 | 35150 ft | 536 kts | 62° |
| 2026-04-25 23:33 | 38.75495 | -107.22987 | 35159 ft | 535 kts | 62° |
| 2026-04-25 23:34 | 38.78728 | -107.14382 | 35158 ft | 535 kts | 63° |
| 2026-04-25 23:34 | 38.81933 | -107.05835 | 35165 ft | 534 kts | 62° |
| 2026-04-25 23:35 | 38.85146 | -106.97243 | 35177 ft | 535 kts | 62° |
| 2026-04-25 23:35 | 38.88355 | -106.88627 | 35171 ft | 533 kts | 62° |
| 2026-04-25 23:36 | 38.91524 | -106.80105 | 34832 ft | 530 kts | 63° |
| 2026-04-25 23:36 | 38.93106 | -106.75839 | 34437 ft | 528 kts | 62° |
| 2026-04-25 23:36 | 38.94661 | -106.71646 | 33883 ft | 524 kts | 63° |
| 2026-04-25 23:36 | 38.96233 | -106.67396 | 33025 ft | 526 kts | 62° |
| 2026-04-25 23:37 | 38.97790 | -106.63180 | 32106 ft | 528 kts | 63° |
| 2026-04-25 23:37 | 38.99354 | -106.58937 | 31480 ft | 528 kts | 63° |
| 2026-04-25 23:37 | 39.00917 | -106.54685 | 30961 ft | 531 kts | 63° |
| 2026-04-25 23:37 | 39.02501 | -106.50357 | 30478 ft | 531 kts | 63° |
| 2026-04-25 23:38 | 39.04065 | -106.46077 | 30040 ft | 531 kts | 63° |
| 2026-04-25 23:38 | 39.05643 | -106.41754 | 29561 ft | 532 kts | 63° |
| 2026-04-25 23:38 | 39.07200 | -106.37485 | 29147 ft | 531 kts | 63° |
| 2026-04-25 23:38 | 39.08765 | -106.33193 | 28618 ft | 532 kts | 64° |
| 2026-04-25 23:39 | 39.10328 | -106.28897 | 28110 ft | 532 kts | 64° |
| 2026-04-25 23:39 | 39.11908 | -106.24539 | 27609 ft | 532 kts | 63° |
| 2026-04-25 23:39 | 39.13470 | -106.20232 | 27165 ft | 531 kts | 64° |
| 2026-04-25 23:39 | 39.15021 | -106.15949 | 26726 ft | 531 kts | 64° |
| 2026-04-25 23:40 | 39.16579 | -106.11629 | 26316 ft | 530 kts | 64° |
| 2026-04-25 23:40 | 39.18112 | -106.07365 | 25749 ft | 523 kts | 64° |
| 2026-04-25 23:40 | 39.19636 | -106.03120 | 25047 ft | 528 kts | 64° |
| 2026-04-25 23:40 | 39.21184 | -105.98804 | 24452 ft | 530 kts | 64° |
| 2026-04-25 23:41 | 39.22729 | -105.94489 | 23916 ft | 527 kts | 64° |
| 2026-04-25 23:41 | 39.24254 | -105.90228 | 23356 ft | 507 kts | 64° |
| 2026-04-25 23:41 | 39.25686 | -105.86246 | 22898 ft | 480 kts | 64° |
| 2026-04-25 23:41 | 39.27050 | -105.82462 | 22473 ft | 455 kts | 64° |
| 2026-04-25 23:42 | 39.28357 | -105.78840 | 22036 ft | 436 kts | 64° |
| 2026-04-25 23:42 | 39.29619 | -105.75334 | 21604 ft | 429 kts | 64° |